Time;durP1;ratioP1;P1;durP2;ratioP2;P2;SDS_P1;SDS_P2;PMS_P1;PMS_P2;Temp;Humidity;BMP_temperature;BMP_pressure;BME280_temperature;BME280_humidity;BME280_pressure;Samples;Min_cycle;Max_cycle;Signal;HPM_P1;HPM_P2
2024/01/02 00:00:47;;;;;;;11.83;2.90;;;4.30;99.90;;;;;;4755138;30;20232;-95
2024/01/02 00:03:13;;;;;;;9.03;2.27;;;4.20;99.90;;;;;;4754389;30;20268;-94
2024/01/02 00:05:38;;;;;;;14.50;2.33;;;4.20;99.90;;;;;;4762946;30;20311;-94
2024/01/02 00:08:04;;;;;;;12.90;2.33;;;4.20;99.90;;;;;;4754437;30;20540;-94
2024/01/02 00:10:32;;;;;;;11.23;3.40;;;4.10;99.90;;;;;;4761927;30;20655;-95
2024/01/02 00:12:58;;;;;;;9.70;2.40;;;4.10;99.90;;;;;;4754731;30;20200;-94
2024/01/02 00:15:25;;;;;;;12.33;3.07;;;4.10;99.90;;;;;;4755868;30;20188;-93
2024/01/02 00:17:50;;;;;;;12.57;2.50;;;4.10;99.90;;;;;;4754583;30;20264;-95
2024/01/02 00:20:22;;;;;;;19.10;2.80;;;4.10;99.90;;;;;;4754379;30;20196;-95
2024/01/02 00:22:48;;;;;;;15.07;2.80;;;4.10;99.90;;;;;;4762796;30;20240;-94
2024/01/02 00:25:14;;;;;;;11.43;2.47;;;4.10;99.90;;;;;;4773389;30;20176;-94
2024/01/02 00:27:40;;;;;;;11.90;2.37;;;4.00;99.90;;;;;;4780471;30;20192;-94
2024/01/02 00:30:07;;;;;;;11.33;2.47;;;4.10;99.90;;;;;;4762528;30;20603;-95
2024/01/02 00:32:33;;;;;;;16.83;2.97;;;4.10;99.90;;;;;;4775187;30;20659;-95
2024/01/02 00:35:00;;;;;;;11.30;3.47;;;4.10;99.90;;;;;;4773414;30;20180;-94
2024/01/02 00:37:26;;;;;;;10.40;2.60;;;4.10;99.90;;;;;;4757084;30;20188;-93
2024/01/02 00:39:53;;;;;;;15.17;2.77;;;4.10;99.90;;;;;;4772976;30;20267;-95
2024/01/02 00:42:19;;;;;;;12.00;2.67;;;4.10;99.90;;;;;;4779785;30;20187;-94
2024/01/02 00:44:46;;;;;;;16.87;2.77;;;4.00;99.90;;;;;;4757653;30;20581;-95
2024/01/02 00:47:12;;;;;;;15.70;2.73;;;4.00;99.90;;;;;;4772665;30;20544;-94
2024/01/02 00:49:39;;;;;;;12.60;2.63;;;4.00;99.90;;;;;;4774700;30;20682;-95
2024/01/02 00:52:05;;;;;;;10.43;2.07;;;3.90;99.90;;;;;;4782458;30;20196;-94
2024/01/02 00:54:31;;;;;;;13.80;2.37;;;3.90;99.90;;;;;;4773453;30;20282;-95
2024/01/02 00:56:57;;;;;;;14.53;2.37;;;3.80;99.90;;;;;;4773474;30;20635;-95
2024/01/02 00:59:26;;;;;;;11.83;2.90;;;3.80;99.90;;;;;;4767255;30;20191;-95
2024/01/02 01:01:52;;;;;;;11.47;3.13;;;3.80;99.90;;;;;;4758189;30;20191;-93
2024/01/02 01:04:17;;;;;;;11.13;2.23;;;3.90;99.90;;;;;;4779925;30;20195;-94
2024/01/02 01:06:43;;;;;;;16.83;2.27;;;3.90;99.90;;;;;;4756636;30;20216;-94
2024/01/02 01:09:09;;;;;;;12.03;2.30;;;3.90;99.90;;;;;;4769378;30;20199;-94
2024/01/02 01:11:35;;;;;;;9.90;2.27;;;3.90;99.90;;;;;;4758293;30;20206;-92
2024/01/02 01:14:01;;;;;;;13.30;2.27;;;4.00;99.90;;;;;;4767105;30;20715;-95
2024/01/02 01:16:26;;;;;;;9.17;1.77;;;4.00;99.90;;;;;;4781827;30;20194;-94
2024/01/02 01:18:52;;;;;;;11.70;2.27;;;4.00;99.90;;;;;;4786800;29;20219;-94
2024/01/02 01:21:19;;;;;;;7.40;2.17;;;4.00;99.90;;;;;;4756687;30;20286;-94
2024/01/02 01:23:45;;;;;;;8.47;2.03;;;4.10;99.90;;;;;;4753069;30;20240;-94
2024/01/02 01:26:10;;;;;;;10.77;2.27;;;4.10;99.90;;;;;;4753515;30;20230;-94
2024/01/02 01:28:36;;;;;;;15.80;2.97;;;4.10;99.90;;;;;;4753722;30;20625;-94
2024/01/02 01:31:04;;;;;;;7.57;2.20;;;4.10;99.90;;;;;;4765362;30;20195;-95
2024/01/02 01:33:30;;;;;;;8.50;2.37;;;4.10;99.90;;;;;;4757514;30;20189;-93
2024/01/02 01:35:56;;;;;;;13.97;2.77;;;4.20;99.90;;;;;;4754646;30;20200;-94
2024/01/02 01:38:21;;;;;;;12.20;2.73;;;4.20;99.90;;;;;;4760504;30;20203;-94
2024/01/02 01:40:54;;;;;;;10.67;2.10;;;4.20;99.90;;;;;;4754770;30;20188;-94
2024/01/02 01:43:20;;;;;;;8.83;1.77;;;4.20;99.90;;;;;;4762253;30;20193;-93
2024/01/02 01:45:46;;;;;;;15.13;2.37;;;4.20;99.90;;;;;;4760959;30;20223;-93
2024/01/02 01:48:12;;;;;;;14.43;2.07;;;4.20;99.90;;;;;;4753411;30;20197;-95
2024/01/02 01:50:55;;;;;;;16.13;2.37;;;4.30;99.90;;;;;;4760853;30;20195;-93
2024/01/02 01:53:23;;;;;;;9.33;2.33;;;4.30;99.90;;;;;;4754236;30;20196;-94
2024/01/02 01:55:50;;;;;;;14.73;2.33;;;4.30;99.90;;;;;;4754514;30;20226;-94
2024/01/02 01:58:17;;;;;;;10.63;2.13;;;4.30;99.90;;;;;;4754619;30;20200;-95
2024/01/02 02:00:51;;;;;;;13.00;2.30;;;4.30;99.90;;;;;;4754486;30;20244;-94
2024/01/02 02:03:18;;;;;;;11.20;2.40;;;4.30;99.90;;;;;;4747019;30;20271;-93
2024/01/02 02:05:45;;;;;;;12.00;2.07;;;4.30;99.90;;;;;;4767250;30;20212;-94
2024/01/02 02:08:11;;;;;;;13.03;2.23;;;4.30;99.90;;;;;;4759136;30;20291;-94
2024/01/02 02:10:37;;;;;;;14.97;2.63;;;4.30;99.90;;;;;;4756067;30;20217;-94
2024/01/02 02:13:03;;;;;;;9.93;2.10;;;4.30;99.90;;;;;;4753579;30;20703;-94
2024/01/02 02:15:29;;;;;;;9.23;2.53;;;4.20;99.90;;;;;;4753115;30;20199;-93
2024/01/02 02:17:55;;;;;;;10.20;2.10;;;4.20;99.90;;;;;;4754224;30;20193;-94
2024/01/02 02:20:25;;;;;;;7.97;2.00;;;4.20;99.90;;;;;;4753501;30;20246;-95
2024/01/02 02:22:51;;;;;;;12.33;2.07;;;4.20;99.90;;;;;;4738646;30;20268;-94
2024/01/02 02:25:18;;;;;;;15.90;2.80;;;4.20;99.90;;;;;;4761720;30;20279;-94
2024/01/02 02:27:46;;;;;;;10.33;2.37;;;4.20;99.90;;;;;;4766111;30;20628;-94
2024/01/02 02:30:13;;;;;;;7.93;2.13;;;4.20;99.90;;;;;;4757049;30;20201;-94
2024/01/02 02:32:39;;;;;;;7.80;2.17;;;4.20;99.90;;;;;;4763933;30;20236;-92
2024/01/02 02:35:05;;;;;;;7.63;2.47;;;4.30;99.90;;;;;;4758273;30;20691;-95
2024/01/02 02:37:31;;;;;;;8.53;2.30;;;4.30;99.90;;;;;;4757496;30;20181;-92
2024/01/02 02:39:57;;;;;;;8.23;1.87;;;4.30;99.90;;;;;;4756283;30;20307;-93
2024/01/02 02:42:23;;;;;;;11.17;2.43;;;4.30;99.90;;;;;;4756578;30;20192;-93
2024/01/02 02:44:48;;;;;;;10.23;2.27;;;4.30;99.90;;;;;;4757635;30;20554;-93
2024/01/02 02:47:14;;;;;;;11.47;2.57;;;4.30;99.90;;;;;;4757333;30;20247;-93
2024/01/02 02:49:41;;;;;;;11.97;2.10;;;4.30;99.90;;;;;;4757460;30;20269;-93
2024/01/02 02:54:43;;;;;;;10.27;2.13;;;4.30;99.90;;;;;;4911704;24;20496;-80
2024/01/02 02:57:08;;;;;;;12.37;2.20;;;4.30;99.90;;;;;;4769726;30;20544;-81
2024/01/02 02:59:34;;;;;;;14.20;2.67;;;4.40;99.90;;;;;;4791277;30;20191;-82
2024/01/02 03:02:00;;;;;;;14.03;1.97;;;4.40;99.90;;;;;;4791631;30;20214;-82
2024/01/02 03:04:25;;;;;;;9.87;2.33;;;4.50;99.90;;;;;;4784134;30;20234;-82
2024/01/02 03:06:51;;;;;;;11.13;2.40;;;4.50;99.90;;;;;;4775135;30;20249;-81
2024/01/02 03:09:17;;;;;;;12.17;2.63;;;4.50;99.90;;;;;;4767890;30;20214;-81
2024/01/02 03:11:44;;;;;;;11.63;2.60;;;4.60;99.90;;;;;;4774863;30;20260;-82
2024/01/02 03:14:10;;;;;;;11.70;1.90;;;4.60;99.90;;;;;;4774854;30;20198;-81
2024/01/02 03:16:35;;;;;;;10.00;2.30;;;4.60;99.90;;;;;;4774648;30;20191;-83
2024/01/02 03:19:02;;;;;;;9.63;2.23;;;4.60;99.90;;;;;;4775070;30;20625;-82
2024/01/02 03:21:28;;;;;;;11.33;1.87;;;4.60;99.90;;;;;;4767607;30;20202;-82
2024/01/02 03:23:58;;;;;;;13.10;2.13;;;4.60;99.90;;;;;;4767113;30;20187;-81
2024/01/02 03:26:24;;;;;;;18.23;2.83;;;4.60;99.90;;;;;;4774648;30;20219;-82
2024/01/02 03:28:50;;;;;;;12.50;3.00;;;4.60;99.90;;;;;;4790631;30;20969;-81
2024/01/02 03:31:16;;;;;;;10.40;2.00;;;4.60;99.90;;;;;;4774842;30;20195;-82
2024/01/02 03:33:42;;;;;;;10.47;2.57;;;4.50;99.90;;;;;;4767257;30;20195;-81
2024/01/02 03:36:18;;;;;;;12.47;1.87;;;4.50;99.90;;;;;;4790146;29;20193;-81
2024/01/02 03:38:49;;;;;;;9.10;1.87;;;4.50;99.90;;;;;;4765882;30;20191;-82
2024/01/02 03:41:15;;;;;;;7.93;1.77;;;4.40;99.90;;;;;;4769701;30;20187;-81
2024/01/02 03:43:41;;;;;;;12.77;1.90;;;4.40;99.90;;;;;;4782771;29;20631;-82
2024/01/02 03:46:07;;;;;;;14.10;2.63;;;4.40;99.90;;;;;;4774341;30;20778;-83
2024/01/02 03:48:33;;;;;;;12.30;2.07;;;4.40;99.90;;;;;;4782275;30;20195;-81
2024/01/02 03:51:01;;;;;;;8.63;1.90;;;4.40;99.90;;;;;;4774321;30;20214;-81
2024/01/02 03:53:28;;;;;;;12.73;1.87;;;4.40;99.90;;;;;;4789971;29;20235;-81
2024/01/02 03:55:55;;;;;;;11.03;2.00;;;4.40;99.90;;;;;;4770936;30;20228;-82
2024/01/02 03:58:21;;;;;;;7.03;1.90;;;4.40;99.90;;;;;;4770041;30;20254;-83
2024/01/02 04:00:47;;;;;;;6.23;1.70;;;4.50;99.90;;;;;;4768886;30;20651;-82
2024/01/02 04:03:12;;;;;;;19.97;2.80;;;4.50;99.90;;;;;;4774006;30;20597;-83
2024/01/02 04:05:38;;;;;;;14.57;2.70;;;4.50;99.90;;;;;;4782662;29;20262;-82
2024/01/02 04:08:05;;;;;;;9.60;2.07;;;4.50;99.90;;;;;;4769974;30;20195;-83
2024/01/02 04:10:31;;;;;;;13.20;2.67;;;4.60;99.90;;;;;;4771900;30;20650;-83
2024/01/02 04:12:56;;;;;;;10.47;1.83;;;4.50;99.90;;;;;;4790409;29;20279;-81
2024/01/02 04:15:22;;;;;;;11.27;2.43;;;4.60;99.90;;;;;;4774116;30;20547;-83
2024/01/02 04:17:48;;;;;;;9.77;2.40;;;4.60;99.90;;;;;;4790150;30;20639;-82
2024/01/02 04:20:14;;;;;;;13.80;2.03;;;4.50;99.90;;;;;;4766828;30;20226;-82
2024/01/02 04:22:40;;;;;;;10.40;1.90;;;4.60;99.90;;;;;;4773765;30;20199;-83
2024/01/02 04:25:07;;;;;;;14.17;2.37;;;4.60;99.90;;;;;;4773651;30;20211;-83
2024/01/02 04:27:33;;;;;;;10.27;1.63;;;4.60;99.90;;;;;;4773765;30;20227;-82
2024/01/02 04:29:58;;;;;;;6.40;1.67;;;4.60;99.90;;;;;;4773861;30;20202;-83
2024/01/02 04:32:24;;;;;;;12.13;2.10;;;4.60;99.90;;;;;;4773393;30;20203;-83
2024/01/02 04:34:50;;;;;;;11.77;2.10;;;4.60;99.90;;;;;;4773475;30;20218;-83
2024/01/02 04:37:16;;;;;;;9.73;2.00;;;4.60;99.90;;;;;;4784348;30;20206;-81
2024/01/02 04:39:41;;;;;;;9.03;2.33;;;4.60;99.90;;;;;;4773063;30;20195;-82
2024/01/02 04:42:07;;;;;;;14.23;2.40;;;4.60;99.90;;;;;;4773360;30;20203;-84
2024/01/02 04:44:33;;;;;;;8.83;1.60;;;4.60;99.90;;;;;;4786594;30;20323;-82
2024/01/02 04:46:59;;;;;;;13.70;2.00;;;4.60;99.90;;;;;;4773118;30;20258;-83
2024/01/02 04:49:26;;;;;;;9.30;2.30;;;4.60;99.90;;;;;;4773191;30;20238;-82
2024/01/02 04:51:51;;;;;;;10.33;2.70;;;4.70;99.90;;;;;;4789223;29;20361;-81
2024/01/02 04:54:17;;;;;;;10.80;1.60;;;4.70;99.90;;;;;;4772488;30;20699;-82
2024/01/02 04:56:43;;;;;;;8.57;1.80;;;4.70;99.90;;;;;;4772794;30;20539;-82
2024/01/02 04:59:09;;;;;;;6.53;1.90;;;4.80;99.90;;;;;;4773140;30;20224;-81
2024/01/02 05:01:37;;;;;;;11.13;1.60;;;4.80;99.90;;;;;;4770682;30;20293;-81
2024/01/02 05:04:04;;;;;;;10.83;1.60;;;4.80;99.90;;;;;;4767163;30;20203;-82
2024/01/02 05:06:30;;;;;;;7.20;1.37;;;4.80;99.90;;;;;;4772219;30;20279;-83
2024/01/02 05:08:56;;;;;;;9.33;1.77;;;4.80;99.90;;;;;;4772816;30;20203;-83
2024/01/02 05:11:22;;;;;;;9.57;1.57;;;4.90;99.90;;;;;;4772605;30;20207;-83
2024/01/02 05:13:48;;;;;;;6.87;1.60;;;4.80;99.90;;;;;;4770283;30;20615;-83
2024/01/02 05:16:14;;;;;;;7.57;1.63;;;4.90;99.90;;;;;;4768340;30;20202;-83
2024/01/02 05:18:40;;;;;;;5.40;1.63;;;4.90;99.90;;;;;;4786874;30;20264;-83
2024/01/02 05:21:07;;;;;;;6.03;1.50;;;4.90;99.90;;;;;;4767141;30;20643;-81
2024/01/02 05:23:34;;;;;;;9.53;1.50;;;4.90;99.90;;;;;;4772452;30;20545;-83
2024/01/02 05:25:59;;;;;;;6.87;2.23;;;4.90;99.90;;;;;;4772423;30;20230;-82
2024/01/02 05:28:26;;;;;;;11.00;1.37;;;4.90;99.90;;;;;;4788843;30;20191;-82
2024/01/02 05:30:52;;;;;;;4.90;1.17;;;4.90;99.90;;;;;;4772536;30;20251;-82
2024/01/02 05:33:18;;;;;;;6.00;1.43;;;4.90;99.90;;;;;;4764886;30;20195;-81
2024/01/02 05:35:44;;;;;;;12.43;1.73;;;4.90;99.90;;;;;;4772232;30;20286;-81
2024/01/02 05:38:10;;;;;;;7.80;1.50;;;4.90;99.90;;;;;;4772071;30;20201;-81
2024/01/02 05:40:35;;;;;;;16.27;1.87;;;4.90;99.90;;;;;;4772325;30;20223;-82
2024/01/02 05:43:01;;;;;;;9.00;1.93;;;4.90;99.90;;;;;;4788532;30;20195;-82
2024/01/02 05:45:27;;;;;;;8.97;1.50;;;4.90;99.90;;;;;;4772122;30;20199;-81
2024/01/02 05:47:53;;;;;;;7.07;1.50;;;4.90;99.90;;;;;;4757355;30;20276;-81
2024/01/02 05:50:19;;;;;;;6.93;2.00;;;4.90;99.90;;;;;;4787886;30;20256;-81
2024/01/02 05:52:44;;;;;;;6.77;1.70;;;4.90;99.90;;;;;;4771473;29;20501;-84
2024/01/02 05:55:10;;;;;;;8.10;1.50;;;4.90;99.90;;;;;;4771338;30;20692;-84
2024/01/02 05:57:36;;;;;;;8.23;1.30;;;4.90;99.90;;;;;;4763991;30;20206;-84
2024/01/02 06:00:02;;;;;;;9.20;2.03;;;4.90;99.90;;;;;;4771750;30;20202;-82
2024/01/02 06:02:28;;;;;;;4.10;1.30;;;4.90;99.90;;;;;;4763675;30;20235;-83
2024/01/02 06:04:54;;;;;;;7.03;1.90;;;4.90;99.90;;;;;;4771943;30;20241;-83
2024/01/02 06:07:19;;;;;;;7.97;1.77;;;4.90;99.90;;;;;;4771520;30;20250;-85
2024/01/02 06:09:45;;;;;;;9.40;1.77;;;5.00;99.90;;;;;;4786852;30;20227;-84
2024/01/02 06:12:11;;;;;;;7.33;1.40;;;5.00;99.90;;;;;;4770834;30;20191;-84
2024/01/02 06:14:37;;;;;;;4.33;2.00;;;5.00;99.90;;;;;;4763311;30;20216;-84
2024/01/02 06:17:03;;;;;;;5.50;1.53;;;5.00;99.90;;;;;;4786386;30;20187;-84
2024/01/02 06:19:29;;;;;;;9.77;1.60;;;5.00;99.90;;;;;;4770452;30;20223;-84
2024/01/02 06:21:55;;;;;;;10.30;2.00;;;5.00;99.90;;;;;;4767243;30;20597;-84
2024/01/02 06:24:21;;;;;;;4.63;1.63;;;5.00;99.90;;;;;;4759942;30;20191;-85
2024/01/02 06:26:47;;;;;;;5.33;1.77;;;5.00;99.90;;;;;;4771754;30;20227;-85
2024/01/02 06:29:13;;;;;;;7.90;1.53;;;5.00;99.90;;;;;;4788296;30;20270;-84
2024/01/02 06:31:39;;;;;;;8.60;1.27;;;5.00;99.90;;;;;;4770060;30;20202;-84
2024/01/02 06:34:04;;;;;;;6.57;1.20;;;5.00;99.90;;;;;;4759193;30;20301;-85
2024/01/02 06:36:30;;;;;;;5.90;1.40;;;5.00;99.90;;;;;;4772000;30;20255;-85
2024/01/02 06:38:56;;;;;;;8.37;1.83;;;5.00;99.90;;;;;;4771988;30;20646;-84
2024/01/02 06:41:22;;;;;;;8.50;1.50;;;5.00;99.90;;;;;;4772121;30;20511;-85
2024/01/02 06:43:47;;;;;;;7.30;1.33;;;5.00;99.90;;;;;;4772313;30;20199;-85
2024/01/02 06:46:13;;;;;;;4.50;1.07;;;5.10;99.90;;;;;;4772281;30;20227;-89
2024/01/02 06:48:41;;;;;;;3.93;1.40;;;5.10;99.90;;;;;;4772197;30;20507;-86
2024/01/02 06:51:07;;;;;;;8.00;1.70;;;5.10;99.90;;;;;;4772485;30;20199;-83
2024/01/02 06:53:32;;;;;;;4.53;1.40;;;5.10;99.90;;;;;;4772049;30;20330;-85
2024/01/02 06:55:59;;;;;;;5.80;1.43;;;5.10;99.90;;;;;;4772619;30;20643;-87
2024/01/02 06:58:24;;;;;;;5.03;1.40;;;5.10;99.90;;;;;;4772301;30;20192;-87
2024/01/02 07:00:50;;;;;;;5.33;1.50;;;5.10;99.90;;;;;;4772390;30;20248;-86
2024/01/02 07:03:18;;;;;;;5.33;1.50;;;5.10;99.90;;;;;;4771796;30;20199;-88
2024/01/02 07:05:43;;;;;;;8.50;1.80;;;5.10;99.90;;;;;;4764638;30;20583;-86
2024/01/02 07:08:10;;;;;;;5.33;1.40;;;5.10;99.90;;;;;;4772186;30;20207;-85
2024/01/02 07:10:35;;;;;;;3.27;1.40;;;5.10;99.90;;;;;;4772053;29;20245;-87
2024/01/02 07:13:01;;;;;;;9.97;1.53;;;5.10;99.90;;;;;;4774662;30;20195;-85
2024/01/02 07:15:27;;;;;;;5.20;1.40;;;5.10;99.90;;;;;;4773146;30;20210;-85
2024/01/02 07:18:00;;;;;;;5.20;1.67;;;5.10;99.90;;;;;;4768354;30;20262;-86
2024/01/02 07:20:26;;;;;;;4.50;1.40;;;5.10;99.90;;;;;;4784295;30;20274;-84
2024/01/02 07:22:52;;;;;;;7.60;1.77;;;5.10;99.90;;;;;;4784314;30;20363;-85
2024/01/02 07:25:21;;;;;;;5.57;1.43;;;5.10;99.90;;;;;;4772081;30;20184;-85
2024/01/02 07:27:53;;;;;;;3.87;1.40;;;5.10;99.90;;;;;;4774935;30;20559;-87
2024/01/02 07:30:20;;;;;;;6.70;1.30;;;5.20;99.90;;;;;;4773231;30;20192;-86
2024/01/02 07:32:45;;;;;;;5.13;1.10;;;5.10;99.90;;;;;;4774442;30;20256;-83
2024/01/02 07:35:14;;;;;;;3.70;1.00;;;5.10;99.90;;;;;;4775578;30;20191;-85
2024/01/02 07:37:48;;;;;;;8.03;1.27;;;5.20;99.90;;;;;;4766416;30;20188;-86
2024/01/02 07:40:17;;;;;;;4.73;1.17;;;5.20;99.90;;;;;;4775462;30;20200;-84
2024/01/02 07:42:43;;;;;;;4.97;1.40;;;5.10;99.90;;;;;;4768093;30;20686;-86
2024/01/02 07:45:09;;;;;;;3.07;0.93;;;5.10;99.90;;;;;;4775886;30;20218;-89
2024/01/02 07:47:38;;;;;;;2.63;1.00;;;5.20;99.90;;;;;;4769973;30;20556;-87
2024/01/02 07:50:04;;;;;;;4.33;1.30;;;5.20;99.90;;;;;;4775557;30;20195;-89
2024/01/02 07:52:31;;;;;;;3.30;1.10;;;5.20;99.90;;;;;;4771649;30;20220;-88
2024/01/02 07:54:57;;;;;;;4.07;1.17;;;5.20;99.90;;;;;;4775288;30;20274;-86
2024/01/02 07:57:25;;;;;;;2.73;1.20;;;5.20;99.90;;;;;;4773292;30;20219;-86
2024/01/02 07:59:51;;;;;;;1.87;0.90;;;5.10;99.90;;;;;;4774894;30;20195;-87
2024/01/02 08:02:17;;;;;;;4.67;1.13;;;5.10;99.90;;;;;;4769883;30;20227;-83
2024/01/02 08:04:42;;;;;;;4.07;0.90;;;5.20;99.90;;;;;;4773904;30;20236;-88
2024/01/02 08:07:08;;;;;;;4.13;1.20;;;5.20;99.90;;;;;;4775115;30;20227;-91
2024/01/02 08:09:36;;;;;;;3.67;1.10;;;5.20;99.90;;;;;;4774842;30;20302;-89
2024/01/02 08:12:02;;;;;;;6.50;1.23;;;5.20;99.90;;;;;;4770321;30;20333;-88
2024/01/02 08:14:27;;;;;;;3.47;1.00;;;5.20;99.90;;;;;;4775226;30;20293;-89
2024/01/02 08:16:53;;;;;;;5.90;1.20;;;5.20;99.90;;;;;;4771344;30;20302;-87
2024/01/02 08:19:20;;;;;;;4.50;1.27;;;5.20;99.90;;;;;;4784862;30;20647;-88
2024/01/02 08:21:46;;;;;;;3.80;1.20;;;5.10;99.90;;;;;;4761477;30;20918;-87
2024/01/02 08:24:12;;;;;;;2.83;0.87;;;5.20;99.90;;;;;;4774978;30;20207;-86
2024/01/02 08:26:38;;;;;;;3.17;1.40;;;5.20;99.90;;;;;;4774571;30;20230;-87
2024/01/02 08:29:06;;;;;;;6.87;1.30;;;5.10;99.90;;;;;;4773218;30;20187;-88
2024/01/02 08:31:32;;;;;;;4.47;1.10;;;5.20;99.90;;;;;;4774909;30;20199;-85
2024/01/02 08:33:57;;;;;;;4.10;1.10;;;5.10;99.90;;;;;;4774685;30;20807;-87
2024/01/02 08:36:23;;;;;;;2.40;1.00;;;5.10;99.90;;;;;;4774491;30;20199;-88
2024/01/02 08:38:50;;;;;;;2.27;0.90;;;5.10;99.90;;;;;;4764647;30;20223;-88
2024/01/02 08:41:16;;;;;;;3.03;0.83;;;5.10;99.90;;;;;;4762726;30;20199;-88
2024/01/02 08:43:42;;;;;;;2.80;0.80;;;5.10;99.90;;;;;;4760100;30;20295;-88
2024/01/02 08:46:08;;;;;;;4.13;1.00;;;5.10;99.90;;;;;;4770079;30;20330;-88
2024/01/02 08:48:35;;;;;;;1.97;0.90;;;5.10;99.90;;;;;;4772299;30;20513;-89
2024/01/02 08:51:01;;;;;;;4.77;0.90;;;5.10;99.90;;;;;;4774683;30;20253;-88
2024/01/02 08:53:27;;;;;;;1.23;0.53;;;5.00;99.90;;;;;;4790418;29;20321;-88
2024/01/02 08:55:52;;;;;;;3.40;0.80;;;5.00;99.90;;;;;;4773171;30;20282;-89
2024/01/02 08:58:19;;;;;;;3.37;0.67;;;5.00;99.90;;;;;;4774489;30;20214;-88
2024/01/02 09:00:45;;;;;;;3.93;0.80;;;5.10;99.90;;;;;;4789940;30;20262;-90
2024/01/02 09:03:11;;;;;;;2.97;0.70;;;5.00;99.90;;;;;;4765637;30;20570;-86
2024/01/02 09:05:37;;;;;;;2.10;0.80;;;5.00;99.90;;;;;;4766254;30;20200;-90
2024/01/02 09:08:04;;;;;;;1.37;0.63;;;5.00;99.90;;;;;;4774266;30;20203;-90
2024/01/02 09:10:30;;;;;;;3.73;0.83;;;5.00;99.90;;;;;;4774191;30;20336;-88
2024/01/02 09:12:56;;;;;;;2.87;0.80;;;5.00;99.90;;;;;;4774456;30;20267;-87
2024/01/02 09:15:21;;;;;;;2.67;0.53;;;5.10;99.90;;;;;;4774463;30;20199;-89
2024/01/02 09:17:47;;;;;;;1.53;0.60;;;5.00;99.90;;;;;;4774037;30;20623;-89
2024/01/02 09:20:14;;;;;;;1.63;0.60;;;5.00;99.90;;;;;;4774599;30;20203;-88
2024/01/02 09:22:40;;;;;;;1.27;0.50;;;5.10;99.90;;;;;;4773911;30;20191;-89
2024/01/02 09:25:10;;;;;;;0.90;0.47;;;5.10;99.90;;;;;;4774436;30;20274;-89
2024/01/02 09:27:38;;;;;;;0.43;0.30;;;5.10;99.90;;;;;;4765671;30;20220;-89
2024/01/02 09:30:14;;;;;;;1.90;0.60;;;5.00;99.90;;;;;;4763877;30;20651;-89
2024/01/02 09:32:41;;;;;;;1.43;0.40;;;5.00;99.90;;;;;;4771100;30;20195;-89
2024/01/02 09:35:06;;;;;;;2.03;0.40;;;5.00;99.90;;;;;;4773946;30;20195;-88
2024/01/02 09:37:32;;;;;;;1.33;0.53;;;5.00;99.90;;;;;;4790160;30;20191;-89
2024/01/02 09:39:59;;;;;;;1.50;0.40;;;5.00;99.90;;;;;;4773792;30;20282;-90
2024/01/02 09:42:37;;;;;;;0.80;0.40;;;5.00;99.90;;;;;;4773878;30;20195;-87
2024/01/02 09:45:33;;;;;;;1.07;0.57;;;5.00;99.90;;;;;;4766749;30;20202;-89
2024/01/02 09:48:10;;;;;;;4.63;0.77;;;5.00;99.90;;;;;;4773757;30;20636;-89
2024/01/02 09:50:58;;;;;;;2.03;0.43;;;5.00;99.90;;;;;;4773605;30;20198;-87
2024/01/02 09:53:46;;;;;;;3.47;0.73;;;5.00;99.90;;;;;;4773712;30;20678;-88
2024/01/02 09:56:43;;;;;;;0.40;0.40;;;5.00;99.90;;;;;;4773737;30;20232;-88
2024/01/02 09:59:46;;;;;;;5.50;0.87;;;5.00;99.90;;;;;;4773831;30;20191;-88
2024/01/02 10:02:41;;;;;;;1.10;0.33;;;5.00;99.90;;;;;;4759762;30;20635;-89
2024/01/02 10:05:29;;;;;;;0.87;0.60;;;4.90;99.90;;;;;;4785275;30;20263;-87
2024/01/02 10:08:23;;;;;;;0.60;0.50;;;4.80;99.90;;;;;;4755950;30;20289;-88
2024/01/02 10:11:18;;;;;;;1.13;0.43;;;4.90;99.90;;;;;;4770562;30;20203;-87
2024/01/02 10:14:25;;;;;;;1.10;0.47;;;4.90;99.90;;;;;;4772506;30;20195;-89
2024/01/02 10:17:11;;;;;;;0.40;0.20;;;5.00;99.90;;;;;;4685195;30;20207;-87
2024/01/02 10:19:53;;;;;;;0.70;0.30;;;5.00;99.90;;;;;;4698428;30;20230;-88
2024/01/02 10:22:34;;;;;;;0.33;0.23;;;4.90;99.90;;;;;;4739976;30;20539;-89
2024/01/02 10:25:08;;;;;;;0.70;0.50;;;4.90;99.90;;;;;;4752294;30;20222;-89
2024/01/02 10:27:52;;;;;;;1.97;0.40;;;5.00;99.90;;;;;;4766221;30;20723;-87
2024/01/02 10:30:28;;;;;;;4.03;0.63;;;5.00;99.90;;;;;;4773681;30;20195;-86
2024/01/02 10:33:11;;;;;;;0.30;0.20;;;5.00;99.90;;;;;;4766132;30;20191;-89
2024/01/02 10:35:49;;;;;;;1.37;0.50;;;5.00;99.90;;;;;;4773378;30;20842;-87
2024/01/02 10:38:24;;;;;;;0.40;0.30;;;5.00;99.90;;;;;;4773203;30;20199;-88
2024/01/02 10:41:03;;;;;;;0.40;0.40;;;5.00;99.90;;;;;;4773377;30;20190;-89
2024/01/02 10:43:34;;;;;;;0.23;0.23;;;5.00;99.90;;;;;;4773350;30;20665;-88
2024/01/02 10:46:46;;;;;;;0.30;0.20;;;5.00;99.90;;;;;;4774197;30;20218;-87
2024/01/02 10:49:22;;;;;;;0.73;0.40;;;5.00;99.90;;;;;;4725679;30;20207;-86
2024/01/02 10:52:16;;;;;;;0.20;0.20;;;5.00;99.90;;;;;;4776648;30;20689;-88
2024/01/02 10:55:29;;;;;;;0.70;0.40;;;5.00;99.90;;;;;;4773356;30;20315;-88
2024/01/02 10:58:19;;;;;;;0.70;0.30;;;5.00;99.90;;;;;;4752972;30;20219;-89
2024/01/02 11:01:09;;;;;;;0.27;0.27;;;5.00;99.90;;;;;;4758850;30;20238;-86
2024/01/02 11:03:50;;;;;;;0.20;0.20;;;5.10;99.90;;;;;;4767689;30;20188;-88
2024/01/02 11:06:48;;;;;;;0.37;0.30;;;5.10;99.90;;;;;;4766248;30;20720;-87
2024/01/02 11:09:26;;;;;;;0.20;0.20;;;5.10;99.90;;;;;;4768459;30;20655;-88
2024/01/02 11:11:54;;;;;;;0.80;0.40;;;5.10;99.90;;;;;;4770327;30;20211;-87
2024/01/02 11:14:23;;;;;;;0.67;0.37;;;5.10;99.90;;;;;;4769313;30;20641;-87
2024/01/02 11:16:52;;;;;;;0.90;0.40;;;5.10;99.90;;;;;;4772980;30;20379;-86
2024/01/02 11:19:31;;;;;;;0.63;0.30;;;5.10;99.90;;;;;;4769837;30;20196;-87
2024/01/02 11:22:13;;;;;;;0.20;0.20;;;5.00;99.90;;;;;;4773320;30;20253;-87
2024/01/02 11:24:50;;;;;;;0.63;0.30;;;5.10;99.90;;;;;;4769180;30;20227;-86
2024/01/02 11:27:21;;;;;;;0.53;0.37;;;5.10;99.90;;;;;;4760025;30;20224;-86
2024/01/02 11:29:49;;;;;;;0.40;0.20;;;5.10;99.90;;;;;;4756960;30;20196;-87
2024/01/02 11:32:18;;;;;;;0.20;0.20;;;5.10;99.90;;;;;;4765686;30;20224;-86
2024/01/02 11:35:05;;;;;;;0.80;0.40;;;5.10;99.90;;;;;;4770789;30;20219;-84
2024/01/02 11:37:37;;;;;;;0.30;0.30;;;5.10;99.90;;;;;;4772260;30;20187;-85
2024/01/02 11:40:28;;;;;;;0.40;0.40;;;5.20;99.90;;;;;;4759769;30;20196;-85
2024/01/02 11:43:07;;;;;;;0.57;0.33;;;5.20;99.90;;;;;;4757867;30;20266;-85
2024/01/02 11:45:37;;;;;;;0.73;0.30;;;5.20;99.90;;;;;;4755745;30;20261;-86
2024/01/02 11:48:15;;;;;;;2.47;0.40;;;5.20;99.90;;;;;;4769195;30;20296;-86
2024/01/02 11:51:05;;;;;;;0.63;0.43;;;5.20;99.90;;;;;;4769630;30;20191;-87
2024/01/02 11:53:49;;;;;;;0.80;0.40;;;5.30;99.90;;;;;;4772279;30;20251;-87
2024/01/02 11:56:18;;;;;;;0.47;0.30;;;5.30;99.90;;;;;;4763230;30;20287;-87
2024/01/02 11:58:57;;;;;;;0.40;0.30;;;5.30;99.90;;;;;;4763126;30;20221;-87
2024/01/02 12:01:40;;;;;;;0.50;0.40;;;5.30;99.90;;;;;;4768913;30;20256;-87
2024/01/02 12:04:14;;;;;;;0.40;0.40;;;5.30;99.90;;;;;;4760543;30;20341;-86
2024/01/02 12:07:01;;;;;;;2.33;0.40;;;5.30;99.90;;;;;;4770483;30;20226;-87
2024/01/02 12:09:30;;;;;;;0.50;0.40;;;5.40;99.90;;;;;;4770923;30;20196;-87
2024/01/02 12:12:10;;;;;;;0.40;0.30;;;5.40;99.90;;;;;;4772923;30;20199;-86
2024/01/02 12:14:57;;;;;;;0.40;0.30;;;5.40;99.90;;;;;;4770729;30;20192;-87
2024/01/02 12:17:26;;;;;;;0.50;0.30;;;5.50;99.90;;;;;;4772271;30;20206;-87
2024/01/02 12:19:56;;;;;;;0.30;0.30;;;5.50;99.90;;;;;;4772282;30;20192;-87
2024/01/02 12:22:24;;;;;;;0.53;0.40;;;5.50;99.90;;;;;;4766272;30;20193;-87
2024/01/02 12:24:50;;;;;;;0.40;0.40;;;5.50;99.90;;;;;;4771438;30;20196;-87
2024/01/02 12:27:23;;;;;;;0.50;0.40;;;5.50;99.90;;;;;;4766698;30;20216;-88
2024/01/02 12:29:54;;;;;;;1.10;0.30;;;5.50;99.90;;;;;;4771426;30;20223;-87
2024/01/02 12:32:56;;;;;;;0.90;0.40;;;5.60;99.90;;;;;;4766231;30;20291;-88
2024/01/02 12:36:03;;;;;;;0.50;0.40;;;5.70;99.90;;;;;;4761702;30;20196;-87
2024/01/02 12:38:39;;;;;;;0.40;0.30;;;5.70;99.90;;;;;;4753291;30;20204;-87
2024/01/02 12:41:10;;;;;;;0.80;0.40;;;5.70;99.90;;;;;;4764445;30;20648;-88
2024/01/02 12:43:41;;;;;;;0.37;0.37;;;5.70;99.90;;;;;;4771961;30;20650;-87
2024/01/02 12:46:24;;;;;;;0.30;0.30;;;5.70;99.90;;;;;;4771538;30;20226;-87
2024/01/02 12:49:09;;;;;;;1.37;0.50;;;5.70;99.90;;;;;;4762186;30;20279;-88
2024/01/02 12:51:37;;;;;;;0.43;0.33;;;5.70;99.90;;;;;;4769622;30;20233;-87
2024/01/02 12:54:04;;;;;;;0.57;0.40;;;5.80;99.90;;;;;;4764008;30;20247;-87
2024/01/02 12:56:34;;;;;;;4.13;1.50;;;5.80;99.90;;;;;;4772474;30;20184;-87
2024/01/02 12:59:05;;;;;;;19.90;11.17;;;5.80;99.90;;;;;;4767833;30;20197;-87
2024/01/02 13:01:31;;;;;;;24.77;14.90;;;5.80;99.90;;;;;;4768215;30;20248;-86
2024/01/02 13:03:59;;;;;;;6.73;4.90;;;5.90;99.90;;;;;;4764591;30;20207;-88
2024/01/02 13:06:29;;;;;;;7.53;5.20;;;5.90;99.90;;;;;;4771294;30;20219;-87
2024/01/02 13:08:56;;;;;;;2.70;1.27;;;5.90;99.90;;;;;;4770641;30;20184;-87